Time;durP1;ratioP1;P1;durP2;ratioP2;P2;SDS_P1;SDS_P2;PMS_P1;PMS_P2;Temp;Humidity;BMP_temperature;BMP_pressure;BME280_temperature;BME280_humidity;BME280_pressure;Samples;Min_cycle;Max_cycle;Signal;HPM_P1;HPM_P2
2022/11/07 05:25:18;;;;;;;0.98;0.65;;;;;;;11.26;100.00;100214.50;5090995;28;20400;-72
2022/11/07 05:27:44;;;;;;;2.00;1.00;;;;;;;11.27;100.00;100197.50;5091159;28;20047;-72
2022/11/07 05:30:10;;;;;;;1.48;1.00;;;;;;;11.30;100.00;100197.16;5089360;28;20233;-71
2022/11/07 05:32:40;;;;;;;2.05;0.90;;;;;;;11.31;100.00;100194.31;5088916;28;20033;-72
2022/11/07 05:35:06;;;;;;;2.03;1.05;;;;;;;11.33;100.00;100200.28;5088991;28;20040;-71
2022/11/07 05:37:31;;;;;;;0.70;0.70;;;;;;;11.33;100.00;100192.28;5088887;28;20086;-71
2022/11/07 05:39:57;;;;;;;1.42;0.65;;;;;;;11.34;100.00;100195.78;5088899;28;20045;-71
2022/11/07 05:42:22;;;;;;;1.60;0.93;;;;;;;11.31;100.00;100196.97;5088589;28;20047;-71
2022/11/07 05:44:48;;;;;;;1.67;1.10;;;;;;;11.31;100.00;100201.47;5087664;28;20040;-71
2022/11/07 05:47:13;;;;;;;1.23;0.90;;;;;;;11.33;100.00;100205.63;5088657;28;20051;-71
2022/11/07 05:49:39;;;;;;;2.97;0.80;;;;;;;11.37;100.00;100195.44;5088625;28;20040;-71
2022/11/07 05:52:04;;;;;;;1.30;1.05;;;;;;;11.37;100.00;100195.44;5088366;28;20128;-72
2022/11/07 05:54:31;;;;;;;1.65;0.80;;;;;;;11.33;100.00;100202.94;5088696;28;20039;-71
2022/11/07 05:56:57;;;;;;;3.65;1.05;;;;;;;11.29;100.00;100193.66;5088465;28;20040;-72
2022/11/07 05:59:23;;;;;;;1.70;0.73;;;;;;;11.29;100.00;100198.19;5088556;28;20043;-71
2022/11/07 06:01:48;;;;;;;1.77;0.90;;;;;;;11.28;100.00;100207.16;5088208;28;20370;-71
2022/11/07 06:04:13;;;;;;;1.23;1.13;;;;;;;11.29;100.00;100206.19;5088421;28;20045;-72
2022/11/07 06:06:39;;;;;;;1.83;1.35;;;;;;;11.32;100.00;100205.81;5088435;28;20481;-71
2022/11/07 06:09:04;;;;;;;1.40;1.00;;;;;;;11.33;100.00;100205.63;5088332;28;20064;-72
2022/11/07 06:11:31;;;;;;;1.30;1.05;;;;;;;11.35;100.00;100208.97;5087995;28;20127;-71
2022/11/07 06:13:57;;;;;;;1.13;0.98;;;;;;;11.36;100.00;100215.94;5088375;28;20040;-71
2022/11/07 06:16:23;;;;;;;4.75;1.10;;;;;;;11.39;100.00;100220.06;5088235;28;20110;-71
2022/11/07 06:18:49;;;;;;;0.57;0.43;;;;;;;11.40;100.00;100211.88;5088151;28;20036;-72
2022/11/07 06:21:15;;;;;;;0.93;0.65;;;;;;;11.43;100.00;100221.38;5087649;28;20036;-71
2022/11/07 06:23:41;;;;;;;1.40;1.00;;;;;;;11.40;100.00;100219.88;5088240;28;20206;-72
2022/11/07 06:26:07;;;;;;;2.95;1.00;;;;;;;11.41;100.00;100229.56;5087911;28;20128;-71
2022/11/07 06:28:33;;;;;;;0.80;0.60;;;;;;;11.46;100.00;100226.34;5088047;28;20123;-73
2022/11/07 06:30:59;;;;;;;1.10;0.90;;;;;;;11.46;100.00;100231.69;5087752;28;20032;-73
2022/11/07 06:33:25;;;;;;;3.35;0.80;;;;;;;11.43;100.00;100221.38;5077618;28;20541;-73
2022/11/07 06:35:50;;;;;;;1.75;0.85;;;;;;;11.44;100.00;100222.22;5074429;28;20032;-73
2022/11/07 06:38:16;;;;;;;1.08;0.70;;;;;;;11.46;100.00;100230.84;5074532;28;20148;-72
2022/11/07 06:40:42;;;;;;;2.65;1.13;;;;;;;11.46;100.00;100234.34;5074062;28;20036;-73
2022/11/07 06:43:13;;;;;;;2.90;1.02;;;;;;;11.48;100.00;100236.88;5074262;28;20044;-73
2022/11/07 06:45:39;;;;;;;0.70;0.70;;;;;;;11.46;100.00;100233.53;5074275;28;20081;-73
2022/11/07 06:48:05;;;;;;;1.05;0.65;;;;;;;11.50;100.00;100232.16;5074280;28;20096;-73
2022/11/07 06:50:31;;;;;;;1.10;0.85;;;;;;;11.49;100.00;100242.00;5073861;28;20044;-73
2022/11/07 06:53:04;;;;;;;3.08;1.13;;;;;;;11.50;100.00;100254.34;5074103;28;20041;-73
2022/11/07 06:55:29;;;;;;;1.42;0.95;;;;;;;11.49;100.00;100246.53;5074216;28;20068;-73
2022/11/07 06:57:59;;;;;;;2.05;0.98;;;;;;;11.47;100.00;100257.34;5074090;28;20516;-74
2022/11/07 07:00:26;;;;;;;1.52;0.98;;;;;;;11.50;100.00;100249.00;5073849;28;20036;-73
2022/11/07 07:02:52;;;;;;;0.80;0.80;;;;;;;11.52;100.00;100256.81;5074029;28;20462;-73
2022/11/07 07:05:17;;;;;;;1.17;0.88;;;;;;;11.51;100.00;100265.84;5073902;28;20085;-73
2022/11/07 07:07:43;;;;;;;1.92;1.10;;;;;;;11.51;100.00;100266.66;5073853;28;20064;-73
2022/11/07 07:10:08;;;;;;;1.15;0.70;;;;;;;11.51;100.00;100263.16;5073616;28;20043;-73
2022/11/07 07:12:34;;;;;;;1.35;1.00;;;;;;;11.49;100.00;100263.34;5073628;28;20043;-73
2022/11/07 07:14:59;;;;;;;0.73;0.73;;;;;;;11.49;100.00;100274.03;5073824;28;20089;-74
2022/11/07 07:17:25;;;;;;;2.65;1.05;;;;;;;11.47;100.00;100270.69;5073665;28;20459;-73
2022/11/07 07:19:50;;;;;;;1.58;0.70;;;;;;;11.46;100.00;100276.19;5073708;28;20041;-74
2022/11/07 07:22:15;;;;;;;1.45;0.90;;;;;;;11.47;100.00;100275.19;5073200;28;20189;-74
2022/11/07 07:24:41;;;;;;;2.08;0.80;;;;;;;11.47;100.00;100275.19;5073559;28;20036;-73
2022/11/07 07:27:06;;;;;;;2.83;0.90;;;;;;;11.45;100.00;100267.38;5073395;28;20037;-74
2022/11/07 07:29:32;;;;;;;3.20;1.10;;;;;;;11.48;100.00;100272.38;5072285;28;20401;-73
2022/11/07 07:31:57;;;;;;;0.95;0.85;;;;;;;11.51;100.00;100271.16;5073193;28;20045;-72
2022/11/07 07:34:22;;;;;;;1.60;1.25;;;;;;;11.54;100.00;100262.78;5073385;28;20067;-73
2022/11/07 07:36:48;;;;;;;1.48;0.95;;;;;;;11.57;100.00;100271.28;5073254;28;20066;-73
2022/11/07 07:39:13;;;;;;;2.10;0.70;;;;;;;11.65;100.00;100262.38;5073238;28;20497;-74
2022/11/07 07:41:39;;;;;;;1.88;0.98;;;;;;;11.71;100.00;100261.66;5072572;28;20033;-73
2022/11/07 07:44:04;;;;;;;1.35;1.00;;;;;;;11.75;100.00;100262.97;5071950;28;20067;-72
2022/11/07 07:46:30;;;;;;;2.20;1.42;;;;;;;11.81;100.00;100270.28;5072931;28;20127;-73
2022/11/07 07:48:55;;;;;;;2.05;1.20;;;;;;;11.85;100.00;100262.72;5072881;28;20043;-74
2022/11/07 07:51:20;;;;;;;1.52;0.95;;;;;;;11.89;100.00;100266.72;5072506;28;20123;-73
2022/11/07 07:53:46;;;;;;;3.53;1.50;;;;;;;11.92;100.00;100277.84;5072839;28;20047;-73
2022/11/07 07:56:13;;;;;;;2.10;1.27;;;;;;;11.93;100.00;100262.66;5072636;28;20035;-73
2022/11/07 07:58:39;;;;;;;1.23;1.10;;;;;;;11.94;100.00;100272.34;5072766;28;20033;-73
2022/11/07 08:01:09;;;;;;;2.05;1.33;;;;;;;11.90;100.00;100271.88;5072469;28;20041;-72
2022/11/07 08:03:35;;;;;;;5.10;1.20;;;;;;;11.91;100.00;100276.19;5072748;28;20059;-74
2022/11/07 08:06:00;;;;;;;1.35;0.90;;;;;;;11.91;100.00;100270.03;5072535;28;20048;-73
2022/11/07 08:08:26;;;;;;;2.25;1.25;;;;;;;11.97;100.00;100271.97;5072553;28;20515;-73
2022/11/07 08:10:54;;;;;;;1.15;1.02;;;;;;;12.03;100.00;100278.44;5072046;28;20037;-73
2022/11/07 08:13:21;;;;;;;2.47;0.73;;;;;;;12.09;100.00;100275.03;5072505;28;20044;-73
2022/11/07 08:15:46;;;;;;;0.60;0.60;;;;;;;12.15;100.00;100271.63;5071093;28;20036;-73
2022/11/07 08:18:12;;;;;;;2.65;1.00;;;;;;;12.23;99.86;100277.69;5072427;28;20031;-73
2022/11/07 08:20:37;;;;;;;1.60;1.00;;;;;;;12.33;99.01;100273.94;5072015;28;20119;-74
2022/11/07 08:23:05;;;;;;;1.42;0.60;;;;;;;12.45;98.99;100275.97;5072344;28;20430;-72
2022/11/07 08:25:31;;;;;;;1.42;0.70;;;;;;;12.55;98.03;100267.66;5072027;28;20138;-72
2022/11/07 08:27:57;;;;;;;1.95;0.80;;;;;;;12.63;97.70;100264.88;5072345;28;20215;-73
2022/11/07 08:30:22;;;;;;;1.73;0.63;;;;;;;12.75;96.38;100263.41;5071898;28;20078;-73
2022/11/07 08:32:47;;;;;;;0.75;0.73;;;;;;;12.84;95.40;100263.28;5072183;28;20515;-74
2022/11/07 08:35:13;;;;;;;1.90;1.00;;;;;;;12.95;94.48;100262.81;5071966;28;20489;-74
2022/11/07 08:37:38;;;;;;;1.80;0.90;;;;;;;12.99;94.70;100272.97;5072101;28;20479;-73
2022/11/07 08:40:04;;;;;;;1.27;1.00;;;;;;;13.11;93.67;100275.16;5072070;28;20047;-74
2022/11/07 08:42:29;;;;;;;2.95;0.85;;;;;;;13.17;92.89;100275.22;5072182;28;20111;-73
2022/11/07 08:44:55;;;;;;;1.27;0.50;;;;;;;13.23;92.39;100273.63;5071983;28;20408;-72
2022/11/07 08:47:20;;;;;;;0.85;0.75;;;;;;;13.25;91.29;100272.44;5071935;28;20043;-74
2022/11/07 08:49:46;;;;;;;1.08;0.80;;;;;;;13.34;91.10;100280.34;5072068;28;20218;-74
2022/11/07 08:52:11;;;;;;;0.98;0.70;;;;;;;13.37;90.87;100279.97;5071539;28;20037;-73
2022/11/07 08:54:36;;;;;;;3.75;1.00;;;;;;;13.45;90.69;100287.88;5070611;28;20486;-74
2022/11/07 08:57:02;;;;;;;1.30;1.08;;;;;;;13.49;89.48;100281.09;5071956;28;20100;-73
2022/11/07 08:59:28;;;;;;;1.77;1.00;;;;;;;13.55;88.10;100283.84;5070691;28;20076;-73
2022/11/07 09:01:54;;;;;;;1.75;0.65;;;;;;;13.63;88.95;100290.09;5071637;28;20067;-73
2022/11/07 09:04:19;;;;;;;3.38;1.20;;;;;;;13.57;88.58;100289.03;5071847;28;20485;-74
2022/11/07 09:06:45;;;;;;;0.73;0.73;;;;;;;13.59;87.37;100286.97;5071675;28;20131;-73
2022/11/07 09:09:10;;;;;;;1.23;0.75;;;;;;;13.60;87.75;100288.63;5071734;28;20036;-73
2022/11/07 09:11:36;;;;;;;0.90;0.73;;;;;;;13.79;85.98;100295.19;5071554;28;20080;-73
2022/11/07 09:14:01;;;;;;;2.85;1.13;;;;;;;13.94;85.58;100282.53;5071783;28;20115;-73
2022/11/07 09:16:27;;;;;;;2.33;0.93;;;;;;;14.02;84.30;100292.28;5071562;28;20401;-74
2022/11/07 09:18:52;;;;;;;3.20;1.13;;;;;;;14.07;81.90;100282.63;5071558;28;20032;-73
2022/11/07 09:21:18;;;;;;;0.60;0.50;;;;;;;14.30;81.89;100295.78;5071255;28;20119;-74
2022/11/07 09:23:44;;;;;;;1.15;0.77;;;;;;;14.43;81.84;100294.22;5071542;28;20036;-73
2022/11/07 09:26:09;;;;;;;1.30;0.68;;;;;;;14.39;81.07;100286.56;5071527;28;20528;-73
2022/11/07 09:28:35;;;;;;;2.60;0.80;;;;;;;14.45;80.46;100287.63;5071545;28;20037;-73
2022/11/07 09:31:03;;;;;;;2.42;0.80;;;;;;;14.39;80.70;100291.09;5071180;28;20045;-73
2022/11/07 09:33:29;;;;;;;0.82;0.70;;;;;;;14.33;81.51;100290.00;5071455;28;20028;-74
2022/11/07 09:35:59;;;;;;;2.15;0.98;;;;;;;14.24;80.67;100288.53;5071410;28;20405;-74
2022/11/07 09:38:24;;;;;;;0.85;0.43;;;;;;;14.26;80.57;100289.16;5071690;28;20043;-74
2022/11/07 09:41:04;;;;;;;1.40;0.60;;;;;;;14.27;80.57;100290.81;5069960;28;20028;-73
2022/11/07 09:43:47;;;;;;;2.45;0.80;;;;;;;14.30;83.15;100298.47;5071381;28;20037;-74
2022/11/07 09:46:33;;;;;;;0.73;0.47;;;;;;;14.30;79.66;100284.25;5071302;28;20046;-74
2022/11/07 09:49:25;;;;;;;0.95;0.68;;;;;;;14.51;80.15;100296.75;5071405;28;20409;-73
2022/11/07 09:52:16;;;;;;;4.72;1.15;;;;;;;14.60;78.68;100292.88;5070970;28;20047;-73
2022/11/07 09:54:54;;;;;;;1.48;0.85;;;;;;;14.60;80.70;100292.88;5071219;28;20028;-73
2022/11/07 09:57:21;;;;;;;0.82;0.70;;;;;;;14.59;78.65;100281.34;5071192;28;20038;-73
2022/11/07 09:59:56;;;;;;;3.08;0.77;;;;;;;14.62;78.83;100290.84;5071132;28;20036;-73
2022/11/07 10:02:26;;;;;;;0.57;0.40;;;;;;;14.61;78.95;100294.56;5071146;28;20043;-74
2022/11/07 10:04:58;;;;;;;0.60;0.50;;;;;;;14.61;78.32;100290.03;5069872;28;20043;-74
2022/11/07 10:07:45;;;;;;;2.13;0.90;;;;;;;14.67;82.10;100293.78;5071727;28;20070;-74
2022/11/07 10:10:31;;;;;;;0.93;0.57;;;;;;;14.73;80.15;100287.59;5074843;28;20024;-74
2022/11/07 10:13:24;;;;;;;4.63;1.00;;;;;;;14.77;78.32;100286.16;5074992;28;20036;-73
2022/11/07 10:16:07;;;;;;;1.38;0.73;;;;;;;14.85;79.50;100294.03;5074790;28;20117;-73
2022/11/07 10:18:45;;;;;;;1.52;0.80;;;;;;;14.94;76.82;100294.72;5074798;28;20482;-73
2022/11/07 10:21:30;;;;;;;;;;;;;;;15.07;77.22;100296.63;5074744;28;20033;-74
2022/11/07 10:24:20;;;;;;;2.42;0.82;;;;;;;15.23;75.99;100295.41;5074710;28;19923;-73
2022/11/07 10:26:46;;;;;;;1.08;0.70;;;;;;;15.40;74.37;100296.72;5074598;28;20048;-74
2022/11/07 10:29:20;;;;;;;0.95;0.77;;;;;;;15.67;76.13;100292.22;5074522;28;20041;-74
2022/11/07 10:31:55;;;;;;;1.00;0.60;;;;;;;15.70;72.55;100294.50;5074160;28;20037;-74
2022/11/07 10:34:32;;;;;;;3.78;1.08;;;;;;;15.67;71.81;100270.75;5073324;28;20076;-75
2022/11/07 10:36:57;;;;;;;1.65;0.55;;;;;;;15.68;72.04;100291.19;5074287;28;20043;-74
2022/11/07 10:39:22;;;;;;;1.38;0.57;;;;;;;15.74;71.96;100287.69;5074362;28;20033;-74
2022/11/07 10:42:01;;;;;;;0.82;0.65;;;;;;;15.66;72.57;100286.03;5074068;28;20043;-74
2022/11/07 10:44:28;;;;;;;2.65;0.75;;;;;;;15.62;72.90;100283.97;5074318;28;20040;-74
2022/11/07 10:46:53;;;;;;;4.90;0.70;;;;;;;15.59;72.66;100289.72;5074232;28;20110;-73
2022/11/07 10:49:20;;;;;;;2.45;0.80;;;;;;;15.45;73.82;100289.69;5074258;28;20278;-73
2022/11/07 10:51:46;;;;;;;1.52;0.73;;;;;;;15.34;74.28;100295.66;5073759;28;20033;-73
2022/11/07 10:54:24;;;;;;;1.20;0.85;;;;;;;15.33;74.43;100287.81;5074219;28;20040;-73
2022/11/07 10:57:10;;;;;;;;;;;;;;;15.26;74.65;100295.00;5074519;28;20037;-73
2022/11/07 10:59:39;;;;;;;0.95;0.65;;;;;;;15.18;74.44;100283.41;5073839;28;19912;-73
2022/11/07 11:02:43;;;;;;;1.98;0.65;;;;;;;15.07;75.64;100289.41;5073764;28;20047;-73
2022/11/07 11:05:20;;;;;;;2.63;1.15;;;;;;;15.06;76.28;100287.75;5067433;28;20055;-74
2022/11/07 11:07:45;;;;;;;1.00;0.60;;;;;;;15.03;76.97;100290.00;5074186;28;20485;-73
2022/11/07 11:10:23;;;;;;;2.05;0.65;;;;;;;15.01;77.27;100286.69;5073756;28;20090;-73
2022/11/07 11:12:48;;;;;;;;;;;;;;;15.03;78.42;100281.94;5074191;28;20044;-74
2022/11/07 11:15:13;;;;;;;0.85;0.47;;;;;;;15.05;76.21;100285.25;5073797;28;19917;-73
2022/11/07 11:17:39;;;;;;;0.98;0.93;;;;;;;15.12;75.69;100276.19;5073696;28;20036;-74
2022/11/07 11:20:22;;;;;;;2.42;0.75;;;;;;;15.38;75.56;100279.97;5073389;28;20060;-74
2022/11/07 11:22:47;;;;;;;1.25;0.80;;;;;;;15.80;73.04;100272.63;5073677;28;20032;-74
2022/11/07 11:25:18;;;;;;;1.17;0.52;;;;;;;16.39;70.45;100256.41;5073551;28;20067;-73
2022/11/07 11:27:47;;;;;;;4.78;1.27;;;;;;;16.62;67.12;100263.16;5073615;28;20032;-74
2022/11/07 11:30:16;;;;;;;1.85;0.90;;;;;;;16.65;68.70;100258.19;5073772;28;20439;-74
2022/11/07 11:32:49;;;;;;;2.30;0.80;;;;;;;16.34;68.68;100250.00;5073421;28;20044;-73
2022/11/07 11:35:34;;;;;;;0.40;0.30;;;;;;;16.47;68.00;100250.78;5073369;28;20049;-73
2022/11/07 11:38:07;;;;;;;1.50;0.65;;;;;;;16.58;67.57;100243.94;5073355;28;20044;-74
2022/11/07 11:40:37;;;;;;;5.07;0.57;;;;;;;16.68;69.08;100241.63;5073307;28;20397;-74
2022/11/07 11:43:10;;;;;;;0.75;0.55;;;;;;;16.62;67.89;100236.28;5073166;28;20094;-74
2022/11/07 11:45:39;;;;;;;2.25;1.00;;;;;;;16.97;66.19;100229.53;5073022;28;20089;-74
2022/11/07 11:48:24;;;;;;;5.10;0.90;;;;;;;17.02;65.25;100232.41;5073121;28;20040;-74
2022/11/07 11:51:06;;;;;;;2.70;0.95;;;;;;;17.28;63.59;100239.50;5072656;28;20485;-73
2022/11/07 11:53:31;;;;;;;1.60;0.65;;;;;;;17.28;65.03;100226.03;5073032;28;20143;-74
2022/11/07 11:56:06;;;;;;;0.90;0.80;;;;;;;17.51;63.30;100228.13;5073108;28;20207;-74
2022/11/07 11:58:52;;;;;;;1.40;0.68;;;;;;;17.99;62.21;100219.44;5073948;28;20032;-74
2022/11/07 12:01:50;;;;;;;4.70;0.88;;;;;;;18.53;58.45;100225.94;5072588;28;20024;-74
2022/11/07 12:04:43;;;;;;;2.10;0.80;;;;;;;18.85;56.41;100217.69;5072775;28;20059;-75
2022/11/07 12:07:27;;;;;;;1.55;0.70;;;;;;;19.18;55.92;100226.16;5072621;28;20111;-74
2022/11/07 12:10:16;;;;;;;4.97;0.82;;;;;;;19.04;55.21;100222.00;5072402;28;20063;-74
2022/11/07 12:13:00;;;;;;;1.70;1.15;;;;;;;19.08;55.50;100225.03;5072586;28;20047;-74
2022/11/07 12:15:47;;;;;;;0.85;0.60;;;;;;;19.00;57.53;100218.09;5072463;28;20036;-75
2022/11/07 12:18:21;;;;;;;2.33;0.57;;;;;;;19.18;57.95;100223.44;5072372;28;20032;-75
2022/11/07 12:21:05;;;;;;;1.48;0.65;;;;;;;19.07;56.78;100226.09;5072029;28;20404;-75
2022/11/07 12:24:03;;;;;;;2.97;0.80;;;;;;;18.73;59.33;100233.00;5072370;28;20040;-75
2022/11/07 12:26:37;;;;;;;2.85;1.23;;;;;;;18.23;59.68;100230.41;5054183;28;20409;-74
2022/11/07 12:29:25;;;;;;;1.58;0.60;;;;;;;18.10;60.21;100232.19;5072114;28;20036;-74
2022/11/07 12:32:15;;;;;;;3.17;0.85;;;;;;;17.59;61.80;100227.84;5071328;28;20043;-74
2022/11/07 12:35:07;;;;;;;1.15;0.63;;;;;;;17.31;63.98;100227.47;5072158;28;20037;-74
2022/11/07 12:38:00;;;;;;;4.05;1.10;;;;;;;17.01;63.36;100222.66;5072130;28;20039;-74
2022/11/07 12:40:51;;;;;;;2.38;1.00;;;;;;;17.11;64.83;100222.19;5071928;28;20047;-73
2022/11/07 12:43:34;;;;;;;1.88;0.70;;;;;;;17.11;63.57;100216.00;5072099;28;20115;-75
2022/11/07 12:46:39;;;;;;;2.40;1.13;;;;;;;17.21;63.70;100219.03;5072328;28;20446;-74
2022/11/07 12:49:30;;;;;;;1.33;0.88;;;;;;;17.30;63.24;100209.66;5072051;28;20456;-74
2022/11/07 12:52:04;;;;;;;1.92;0.73;;;;;;;17.26;61.18;100216.50;5071522;28;20037;-73
2022/11/07 12:54:38;;;;;;;1.63;0.70;;;;;;;17.16;61.62;100218.88;5071998;28;20044;-73
2022/11/07 12:57:23;;;;;;;2.30;0.73;;;;;;;17.29;61.71;100203.44;5071932;28;20039;-74
2022/11/07 13:00:04;;;;;;;2.08;0.95;;;;;;;17.23;62.07;100219.66;5071809;28;20171;-74
2022/11/07 13:02:49;;;;;;;3.55;0.82;;;;;;;17.31;63.42;100222.88;5071620;28;20036;-73
2022/11/07 13:05:34;;;;;;;5.63;1.25;;;;;;;17.32;63.20;100219.16;5071723;28;20033;-74
2022/11/07 13:08:18;;;;;;;3.65;1.20;;;;;;;17.22;62.50;100209.94;5071900;28;20032;-72
2022/11/07 13:11:02;;;;;;;2.03;0.70;;;;;;;17.16;62.44;100216.19;5071399;28;20036;-73
2022/11/07 13:13:58;;;;;;;1.30;0.90;;;;;;;17.03;62.34;100207.13;5071716;28;20068;-74
2022/11/07 13:16:33;;;;;;;1.52;1.10;;;;;;;17.13;62.43;100205.84;5071615;28;20036;-74
2022/11/07 13:19:25;;;;;;;1.45;0.80;;;;;;;17.14;61.98;100205.59;5071681;28;20040;-74
2022/11/07 13:22:05;;;;;;;1.98;0.98;;;;;;;17.18;62.61;100200.63;5071138;28;20032;-74
2022/11/07 13:24:32;;;;;;;5.05;1.25;;;;;;;17.16;62.81;100200.03;5071664;28;20559;-74
2022/11/07 13:26:58;;;;;;;1.40;0.77;;;;;;;17.02;62.78;100210.06;5071461;28;20066;-74
2022/11/07 13:29:38;;;;;;;2.05;0.90;;;;;;;16.79;64.02;100197.94;5071544;28;20028;-74
2022/11/07 13:32:10;;;;;;;5.20;1.20;;;;;;;16.96;63.76;100205.53;5071003;28;20041;-74
2022/11/07 13:34:57;;;;;;;3.95;1.25;;;;;;;17.05;64.71;100204.22;5071335;28;20037;-74
2022/11/07 13:37:31;;;;;;;5.15;1.48;;;;;;;16.91;63.52;100210.72;5071469;28;20123;-74
2022/11/07 13:40:14;;;;;;;3.38;1.27;;;;;;;16.78;63.33;100212.44;5071282;28;20461;-74
2022/11/07 13:42:42;;;;;;;1.58;0.77;;;;;;;16.64;63.52;100208.16;5072381;28;20473;-73
2022/11/07 13:45:54;;;;;;;1.23;0.90;;;;;;;16.62;64.51;100212.88;5075442;28;20123;-74
2022/11/07 13:48:29;;;;;;;3.22;0.90;;;;;;;16.50;65.09;100209.25;5074991;28;20143;-73
2022/11/07 13:51:01;;;;;;;1.80;0.75;;;;;;;16.35;66.34;100209.47;5075061;28;20101;-73
2022/11/07 13:53:51;;;;;;;2.22;1.20;;;;;;;16.23;67.04;100211.16;5075298;28;20032;-73
2022/11/07 13:56:35;;;;;;;3.10;1.10;;;;;;;16.24;67.45;100210.16;5067483;28;20132;-73
2022/11/07 13:59:06;;;;;;;3.75;1.17;;;;;;;16.11;68.68;100211.00;5075123;28;20662;-73
2022/11/07 14:01:43;;;;;;;2.15;0.98;;;;;;;15.96;68.54;100203.16;5074713;28;20086;-73
2022/11/07 14:04:16;;;;;;;1.50;0.88;;;;;;;15.88;69.39;100213.31;5074973;28;20060;-73
2022/11/07 14:06:42;;;;;;;1.05;0.77;;;;;;;15.79;69.94;100212.72;5074840;28;20032;-73
2022/11/07 14:09:08;;;;;;;3.33;1.02;;;;;;;15.71;68.24;100208.38;5074827;28;20635;-73
2022/11/07 14:11:35;;;;;;;0.90;0.63;;;;;;;15.75;68.67;100214.16;5074465;28;20044;-73
2022/11/07 14:14:00;;;;;;;1.67;1.15;;;;;;;15.74;68.80;100210.63;5074142;28;20033;-73
2022/11/07 14:16:29;;;;;;;2.75;0.90;;;;;;;15.66;69.58;100218.09;5073688;28;20052;-73
2022/11/07 14:18:57;;;;;;;1.85;1.13;;;;;;;15.68;70.15;100222.19;5074589;28;20123;-73
2022/11/07 14:21:26;;;;;;;2.50;0.70;;;;;;;15.65;69.76;100227.19;5074189;28;20132;-73
2022/11/07 14:23:52;;;;;;;1.45;0.95;;;;;;;15.63;70.85;100226.53;5074695;28;20637;-72
2022/11/07 14:26:37;;;;;;;1.67;0.82;;;;;;;15.58;70.48;100234.34;5074624;28;20115;-73
2022/11/07 14:29:03;;;;;;;4.72;1.20;;;;;;;15.59;71.34;100225.28;5074142;28;20049;-73
2022/11/07 14:31:36;;;;;;;2.80;1.38;;;;;;;15.53;70.39;100224.25;5073855;28;20046;-73
2022/11/07 14:34:21;;;;;;;3.55;1.05;;;;;;;15.55;71.25;100222.19;5074352;28;20046;-73
2022/11/07 14:36:58;;;;;;;0.93;0.80;;;;;;;15.57;70.48;100235.38;5072982;28;20036;-73
2022/11/07 14:39:27;;;;;;;1.65;1.08;;;;;;;15.53;71.07;100224.25;5074466;28;20132;-74
2022/11/07 14:41:55;;;;;;;6.75;1.45;;;;;;;15.51;71.93;100222.78;5074254;28;20424;-74
2022/11/07 14:44:29;;;;;;;3.92;1.35;;;;;;;15.52;71.75;100232.47;5074167;28;20051;-74
2022/11/07 14:46:57;;;;;;;4.10;0.93;;;;;;;15.47;71.93;100233.13;5074003;28;20036;-73
2022/11/07 14:49:26;;;;;;;1.73;0.70;;;;;;;15.47;72.10;100225.06;5074381;28;20055;-74
2022/11/07 14:51:54;;;;;;;2.17;1.08;;;;;;;15.46;71.64;100237.66;5073862;28;20040;-73
2022/11/07 14:54:23;;;;;;;1.65;1.00;;;;;;;15.42;71.77;100239.09;5073333;28;20119;-74
2022/11/07 14:56:54;;;;;;;3.72;1.08;;;;;;;15.41;72.03;100226.72;5073784;28;20378;-74
2022/11/07 14:59:23;;;;;;;2.40;1.02;;;;;;;15.41;73.01;100231.25;5073730;28;20044;-73
2022/11/07 15:01:56;;;;;;;2.85;1.17;;;;;;;15.39;72.65;100233.31;5073340;28;20044;-74
2022/11/07 15:04:33;;;;;;;6.05;1.30;;;;;;;15.39;72.65;100236.00;5073709;28;20033;-74
2022/11/07 15:07:11;;;;;;;3.38;2.38;;;;;;;15.39;73.02;100236.84;5072107;28;20083;-73
2022/11/07 15:09:39;;;;;;;4.10;1.80;;;;;;;15.37;72.65;100227.31;5073576;28;20036;-73
2022/11/07 15:12:14;;;;;;;1.55;1.20;;;;;;;15.36;72.69;100229.19;5073163;28;20448;-73
2022/11/07 15:14:39;;;;;;;4.25;1.33;;;;;;;15.25;73.02;100221.72;5073339;28;20086;-73
2022/11/07 15:17:05;;;;;;;3.85;0.98;;;;;;;15.27;73.53;100233.09;5073268;28;20044;-74
2022/11/07 15:19:34;;;;;;;4.00;1.13;;;;;;;15.29;73.55;100227.53;5073356;28;20119;-73
2022/11/07 15:22:02;;;;;;;3.20;1.17;;;;;;;15.23;73.82;100223.78;5072852;28;20119;-73
2022/11/07 15:24:40;;;;;;;10.15;1.20;;;;;;;15.22;74.29;100226.69;5073190;28;20047;-72
2022/11/07 15:27:12;;;;;;;7.57;1.83;;;;;;;15.18;74.74;100224.41;5073139;28;20040;-74
2022/11/07 15:29:38;;;;;;;2.40;0.85;;;;;;;15.14;73.99;100219.66;5073102;28;20048;-74
2022/11/07 15:32:14;;;;;;;4.15;1.23;;;;;;;15.12;74.29;100227.88;5072652;28;20024;-73
2022/11/07 15:34:40;;;;;;;5.85;1.05;;;;;;;15.09;74.40;100224.81;5073008;28;20147;-73
2022/11/07 15:37:17;;;;;;;2.63;0.95;;;;;;;15.11;74.69;100220.88;5072918;28;20055;-74
2022/11/07 15:39:42;;;;;;;2.45;1.15;;;;;;;15.04;75.02;100214.66;5071791;28;20055;-73
2022/11/07 15:42:08;;;;;;;2.80;0.95;;;;;;;15.04;75.58;100227.25;5072587;28;20024;-73
2022/11/07 15:44:33;;;;;;;2.05;1.00;;;;;;;15.00;75.24;100229.53;5072759;28;20486;-73
2022/11/07 15:47:00;;;;;;;1.90;0.90;;;;;;;14.98;76.13;100214.66;5072679;28;20040;-73
2022/11/07 15:49:27;;;;;;;4.72;1.63;;;;;;;14.91;76.32;100212.78;5072760;28;20123;-73
2022/11/07 15:51:52;;;;;;;2.88;1.20;;;;;;;14.89;76.51;100214.03;5072391;28;20044;-73
2022/11/07 15:54:18;;;;;;;4.88;1.10;;;;;;;14.85;76.89;100224.31;5072727;28;20047;-74
2022/11/07 15:56:45;;;;;;;2.78;1.13;;;;;;;14.79;77.29;100222.44;5072862;28;20040;-73
2022/11/07 15:59:17;;;;;;;2.53;1.30;;;;;;;14.75;77.92;100225.75;5072578;28;20082;-73
2022/11/07 16:01:43;;;;;;;3.15;1.10;;;;;;;14.71;77.92;100216.44;5072343;28;20103;-73
2022/11/07 16:04:08;;;;;;;3.05;1.75;;;;;;;14.69;77.88;100222.00;5072347;28;20036;-74
2022/11/07 16:06:35;;;;;;;2.75;1.33;;;;;;;14.64;78.53;100219.09;5071526;28;20181;-74
2022/11/07 16:09:00;;;;;;;3.45;1.27;;;;;;;14.61;78.51;100223.00;5072452;28;20024;-73
2022/11/07 16:11:26;;;;;;;2.67;1.50;;;;;;;14.58;78.71;100222.56;5070774;28;20067;-74
2022/11/07 16:13:51;;;;;;;2.42;1.75;;;;;;;14.55;78.72;100225.66;5072328;28;20033;-74
2022/11/07 16:16:30;;;;;;;2.72;1.63;;;;;;;14.52;78.99;100220.69;5072305;28;20033;-73
2022/11/07 16:18:56;;;;;;;3.03;1.27;;;;;;;14.49;79.34;100216.56;5072333;28;20028;-74
2022/11/07 16:21:21;;;;;;;5.60;1.75;;;;;;;14.43;79.57;100219.19;5071891;28;20451;-73
2022/11/07 16:23:48;;;;;;;2.35;1.20;;;;;;;14.41;79.93;100219.38;5072263;28;20056;-73
2022/11/07 16:26:18;;;;;;;4.38;1.30;;;;;;;14.35;80.40;100220.19;5072022;28;20047;-73
2022/11/07 16:28:44;;;;;;;3.10;1.38;;;;;;;14.23;80.51;100211.88;5072185;28;20036;-73
2022/11/07 16:31:10;;;;;;;4.35;1.65;;;;;;;14.26;81.22;100221.34;5071723;28;20120;-73
2022/11/07 16:33:35;;;;;;;6.95;1.50;;;;;;;14.25;81.14;100220.53;5073048;28;20310;-72
2022/11/07 16:36:11;;;;;;;3.95;1.77;;;;;;;14.21;81.26;100219.25;5074839;28;20135;-71
2022/11/07 16:38:36;;;;;;;10.30;2.05;;;;;;;14.21;81.45;100221.94;5074738;28;20177;-71
2022/11/07 16:41:01;;;;;;;4.15;1.67;;;;;;;14.22;81.52;100225.47;5077415;28;20075;-70
2022/11/07 16:43:27;;;;;;;3.85;1.60;;;;;;;14.17;81.51;100217.19;5076747;28;20481;-71
2022/11/07 16:45:55;;;;;;;3.35;1.45;;;;;;;14.15;81.90;100220.06;5075412;28;20037;-70
2022/11/07 16:48:25;;;;;;;4.28;1.42;;;;;;;14.15;83.55;100227.25;5075840;28;20039;-71
2022/11/07 16:50:52;;;;;;;4.75;2.15;;;;;;;14.12;84.89;100225.81;5076840;28;20051;-70
2022/11/07 16:53:18;;;;;;;4.50;1.95;;;;;;;14.09;85.21;100220.84;5078303;28;20129;-71
2022/11/07 16:55:46;;;;;;;4.43;1.85;;;;;;;14.05;86.17;100224.94;5077845;28;20024;-71
2022/11/07 16:58:23;;;;;;;6.43;2.40;;;;;;;14.02;86.23;100225.34;5076112;28;20535;-71
2022/11/07 17:00:49;;;;;;;3.83;2.35;;;;;;;14.02;85.96;100225.34;5075888;28;20054;-70
2022/11/07 17:03:14;;;;;;;5.68;3.05;;;;;;;13.98;85.50;100219.53;5076078;28;20480;-70
2022/11/07 17:05:40;;;;;;;2.80;1.52;;;;;;;13.89;87.78;100228.75;5075424;28;20036;-71
2022/11/07 17:08:20;;;;;;;7.13;2.42;;;;;;;13.84;88.38;100231.19;5075212;28;20067;-71